AirNav   Everest Fuels
 
 1283 users online  

2TN4 Shoemaker-Shelby Forest Airport
Millington, Tennessee, USA

GOING TO MILLINGTON?


FAA INFORMATION EFFECTIVE 22 APRIL 2021

Location

FAA Identifier: 2TN4
Lat/Long: 35-19-05.0000N 090-02-07.0000W
35-19.083333N 090-02.116667W
35.3180556,-90.0352778
(estimated)
Elevation: 335 ft. / 102 m (estimated)
Variation: 01E (1995)
From city: 8 miles SW of MILLINGTON, TN
Time zone: UTC -5 (UTC -6 during Standard Time)
Zip code: 38053

Airport Operations

Airport use: Private use. Permission required prior to landing
Activation date: 03/1999
Control tower: no
ARTCC: MEMPHIS CENTER
FSS: JACKSON FLIGHT SERVICE STATION
Attendance: UNATNDD
Wind indicator: yes
Segmented circle: no

Airport Communications

WX AWOS-AV at 2M8 (6 nm SE): 122.8 (901-873-0903)
WX AWOS-AV at M01 (7 nm S): 122.7 ((901) 354-9296)
WX AWOS-3 at NQA (8 nm E): 118.925 (901-873-3630)
WX ASOS at AWM (15 nm SW): 118.175 (870-733-9987)
WX ASOS at MEM (17 nm S): 127.75 (901-842-8483)

Nearby radio navigation aids

VOR radial/distance  VOR name  Freq  Var
MEMr351/18.4MEMPHIS VORTAC117.5001E
GQEr091/21.7GILMORE VOR/DME113.0004E

Airport Services

Runway Information

Runway 16/34

Dimensions: 2785 x 40 ft. / 849 x 12 m
Surface: concrete
RUNWAY 16  RUNWAY 34
Traffic pattern: leftleft
Obstructions: 50 ft. trees, 2600 ft. from runway50 ft. trees, 2600 ft. from runway

Airport Ownership and Management from official FAA records

Ownership: Privately-owned
Owner: JAMES O'FARRELL SHOEMAKER
847 CHASER DRIVE
MILLINGTON, TN 38053
Phone 901-357-6151
Manager: JAMES O'FARRELL SHOEMAKER
847 CHASER DRIVE
MILLINGTON, TN 38053
Phone 901-357-6151
SHOEMAKERDDS@YAHOO.COM

Airport Operational Statistics

Aircraft based on the field: 9
Single engine airplanes: 4
Multi engine airplanes: 1
Jet airplanes: 3
Ultralights: 1
    

Additional Remarks

FOR CD CTC MEMPHIS APCH AT 901-842-8457.

Instrument Procedures

There are no published instrument procedures at 2TN4.

Some nearby airports with instrument procedures:

2M8 - Charles W Baker Airport (6 nm SE)
M01 - General Dewitt Spain Airport (7 nm S)
KNQA - Millington-Memphis Airport (8 nm E)
KAWM - West Memphis Municipal Airport (15 nm SW)
KMEM - Memphis International Airport (17 nm S)
 
Loc | Ops | Rwys | IFR | FBO | Links
Com | Nav | Svcs | Stats | Notes
Area around 2TN4 (Shoemaker-Shelby Forest Airport)
 
Road maps at: MapQuest Bing Google
 
Aerial photo
No photo
 
Sectional chart

 
Airport distance calculator
Flying to Shoemaker-Shelby Forest Airport? Find the distance to fly.

From to 2TN4

Sunrise and sunset
Times for 05-May-2021
 Local
(UTC-5)
 Zulu
(UTC)
Morning civil twilight05:3810:38
Sunrise06:0611:06
Sunset19:4800:48
Evening civil twilight20:1601:16

Current date and time
Zulu (UTC)  05-May-2021 22:48:36
Local (UTC-5)  05-May-2021 17:48:36
 
METAR
KNQA 
8nm E 
052150Z 35010KT 10SM FEW050 20/08 A3011
KAWM 
15nm SW 
052153Z AUTO 02008KT 10SM CLR 21/08 A3011 RMK AO2 SLP194 T02060083 $
KMEM 
15nm S 
052154Z 02003KT 10SM FEW050 21/07 A3011 RMK AO2 SLP193 T02110072 $
TAF
KMEM 
15nm S 
052049Z 0521/0624 36010KT P6SM FEW050 FM060100 04004KT P6SM FEW150 FM061500 27006KT P6SM SCT100
NOTAMs
Click for the latest NOTAMs
NOTAMs are issued by the DoD/FAA and will open in a separate window not controlled by AirNav.

 

 
 

Would you like to see your business listed on this page?

 If your business provides an interesting product or service to pilots, flight crews, aircraft, or users of the Shoemaker-Shelby Forest Airport, you should consider listing it here.  To start the listing process, click on the button below
 
Add a business
 

Other Pages about Shoemaker-Shelby Forest Airport

Update a link
 
Copyright © AirNav, LLC. All rights reserved. Privacy Policy  Contact